Time;durP1;ratioP1;P1;durP2;ratioP2;P2;SDS_P1;SDS_P2;PMS_P1;PMS_P2;Temp;Humidity;BMP_temperature;BMP_pressure;BME280_temperature;BME280_humidity;BME280_pressure;Samples;Min_cycle;Max_cycle;Signal;HPM_P1;HPM_P2
2021/06/16 00:00:57;;;;;;;5.30;2.55;;;;;;;;;;5109972;28;20384;-71
2021/06/16 00:03:23;;;;;;;6.78;2.58;;;;;;;;;;5110125;28;20038;-71
2021/06/16 00:05:49;;;;;;;7.22;2.67;;;;;;;;;;5108479;28;20058;-71
2021/06/16 00:08:15;;;;;;;5.70;2.92;;;;;;;;;;5110071;28;20508;-70
2021/06/16 00:12:29;;;;;;;6.38;2.58;;;;;;;;;;5126527;27;20376;-70
2021/06/16 00:16:26;;;;;;;4.78;2.63;;;;;;;;;;5126449;27;20378;-70
2021/06/16 00:18:52;;;;;;;5.07;3.03;;;;;;;;;;5109155;28;20487;-70
2021/06/16 00:21:55;;;;;;;7.78;2.80;;;;;;;;;;5126180;27;20738;-69
2021/06/16 00:24:21;;;;;;;4.55;2.70;;;;;;;;;;5110527;28;20031;-69
2021/06/16 00:28:37;;;;;;;8.43;3.47;;;;;;;;;;5125964;27;20381;-69
2021/06/16 00:32:41;;;;;;;5.88;3.15;;;;;;;;;;5126512;27;20373;-70
2021/06/16 00:35:07;;;;;;;7.40;3.10;;;;;;;;;;5110336;28;20024;-70
2021/06/16 00:37:35;;;;;;;6.53;3.58;;;;;;;;;;5110478;28;20027;-69
2021/06/16 00:40:16;;;;;;;6.80;3.63;;;;;;;;;;5126393;27;20401;-70
2021/06/16 00:42:43;;;;;;;8.68;3.50;;;;;;;;;;5108847;28;20081;-69
2021/06/16 00:45:10;;;;;;;10.38;3.05;;;;;;;;;;5110365;28;20084;-70
2021/06/16 00:47:36;;;;;;;4.97;3.05;;;;;;;;;;5110412;28;20092;-71
2021/06/16 00:50:04;;;;;;;6.13;2.70;;;;;;;;;;5109972;28;20492;-70
2021/06/16 00:55:08;;;;;;;5.05;2.80;;;;;;;;;;5126222;27;20373;-70
2021/06/16 00:59:09;;;;;;;5.75;2.70;;;;;;;;;;5126243;27;20388;-70
2021/06/16 01:02:51;;;;;;;6.40;2.58;;;;;;;;;;5125968;27;20380;-69
2021/06/16 01:05:18;;;;;;;7.30;3.50;;;;;;;;;;5110540;28;20031;-70
2021/06/16 01:07:45;;;;;;;7.40;3.17;;;;;;;;;;5110474;28;20024;-70
2021/06/16 01:10:13;;;;;;;5.07;3.20;;;;;;;;;;5108740;28;20362;-70
2021/06/16 01:12:44;;;;;;;4.60;2.63;;;;;;;;;;5110540;28;20020;-70
2021/06/16 01:15:12;;;;;;;5.53;2.40;;;;;;;;;;5109077;28;20028;-70
2021/06/16 01:17:38;;;;;;;10.35;2.90;;;;;;;;;;5108599;28;20506;-70
2021/06/16 01:22:42;;;;;;;6.43;3.22;;;;;;;;;;5126428;27;20381;-70
2021/06/16 01:26:40;;;;;;;3.15;2.45;;;;;;;;;;5126338;27;20365;-69
2021/06/16 01:32:09;;;;;;;5.82;3.42;;;;;;;;;;5126209;27;20377;-71
2021/06/16 01:34:36;;;;;;;4.78;2.92;;;;;;;;;;5110667;28;20036;-71
2021/06/16 01:38:09;;;;;;;6.60;3.10;;;;;;;;;;5125849;27;20377;-70
2021/06/16 01:40:36;;;;;;;6.70;3.38;;;;;;;;;;5110448;28;20059;-70
2021/06/16 01:43:03;;;;;;;5.50;3.10;;;;;;;;;;5109143;28;20495;-70
2021/06/16 01:45:30;;;;;;;5.15;2.65;;;;;;;;;;5109984;28;20032;-69
2021/06/16 01:47:58;;;;;;;3.78;2.17;;;;;;;;;;5110394;28;20461;-69
2021/06/16 01:50:25;;;;;;;6.35;2.95;;;;;;;;;;5110273;28;20073;-69
2021/06/16 01:52:52;;;;;;;6.30;2.95;;;;;;;;;;5110001;28;20020;-70
2021/06/16 01:55:19;;;;;;;4.65;2.30;;;;;;;;;;5110307;28;20022;-70
2021/06/16 01:58:48;;;;;;;5.10;2.78;;;;;;;;;;5125839;27;20389;-69
2021/06/16 02:01:16;;;;;;;4.72;2.53;;;;;;;;;;5110488;28;20393;-70
2021/06/16 02:03:55;;;;;;;5.97;2.58;;;;;;;;;;5126379;27;20405;-69
2021/06/16 02:06:24;;;;;;;6.00;2.63;;;;;;;;;;5110222;28;20028;-71
2021/06/16 02:08:50;;;;;;;4.78;2.58;;;;;;;;;;5109301;28;20366;-70
2021/06/16 02:11:52;;;;;;;5.07;2.80;;;;;;;;;;5166043;27;207699;-70
2021/06/16 02:14:34;;;;;;;5.63;2.47;;;;;;;;;;5126002;27;20376;-69
2021/06/16 02:17:07;;;;;;;4.97;2.65;;;;;;;;;;5110480;28;20126;-69
2021/06/16 02:19:34;;;;;;;4.57;2.70;;;;;;;;;;5110075;28;20020;-70
2021/06/16 02:22:01;;;;;;;6.28;3.47;;;;;;;;;;5110621;28;20488;-70
2021/06/16 02:24:35;;;;;;;6.03;2.92;;;;;;;;;;5126348;27;20376;-70
2021/06/16 02:28:50;;;;;;;6.07;3.30;;;;;;;;;;5150721;27;20328;-69
2021/06/16 02:31:17;;;;;;;9.75;3.67;;;;;;;;;;5129846;28;20446;-69
2021/06/16 02:37:23;;;;;;;4.60;2.60;;;;;;;;;;5126352;27;20504;-69
2021/06/16 02:41:16;;;;;;;5.68;3.78;;;;;;;;;;5126118;27;20384;-69
2021/06/16 02:46:20;;;;;;;11.88;4.40;;;;;;;;;;5126313;27;20377;-69
2021/06/16 02:48:49;;;;;;;7.50;4.13;;;;;;;;;;5110391;28;20024;-69
2021/06/16 02:52:13;;;;;;;9.70;4.13;;;;;;;;;;5126411;27;20376;-69
2021/06/16 02:56:23;;;;;;;7.57;3.80;;;;;;;;;;5132971;27;20118;-69
2021/06/16 02:58:49;;;;;;;6.53;3.72;;;;;;;;;;5131021;28;20084;-70
2021/06/16 03:01:20;;;;;;;9.35;3.67;;;;;;;;;;5130824;28;20024;-69
2021/06/16 03:03:51;;;;;;;7.15;4.10;;;;;;;;;;5130506;28;20050;-69
2021/06/16 03:06:20;;;;;;;10.60;4.43;;;;;;;;;;5112582;28;20382;-70
2021/06/16 03:08:47;;;;;;;6.90;4.00;;;;;;;;;;5130560;28;20023;-70
2021/06/16 03:13:46;;;;;;;7.30;3.28;;;;;;;;;;5126281;27;20424;-70
2021/06/16 03:22:38;;;;;;;11.35;3.50;;;;;;;;;;5125999;27;20389;-69
2021/06/16 03:27:03;;;;;;;7.05;3.45;;;;;;;;;;5126554;27;20373;-69
2021/06/16 03:32:26;;;;;;;6.60;3.78;;;;;;;;;;5127003;27;20132;-69
2021/06/16 03:34:52;;;;;;;4.25;2.72;;;;;;;;;;5111434;28;20385;-70
2021/06/16 03:37:19;;;;;;;8.95;4.07;;;;;;;;;;5110963;28;20028;-70
2021/06/16 03:39:45;;;;;;;10.32;5.18;;;;;;;;;;5111562;28;20047;-71
2021/06/16 03:45:34;;;;;;;6.43;3.22;;;;;;;;;;5126139;27;20376;-70
2021/06/16 03:49:36;;;;;;;7.30;3.42;;;;;;;;;;5126590;27;20373;-70
2021/06/16 03:52:42;;;;;;;5.70;3.15;;;;;;;;;;5126166;27;20377;-70
2021/06/16 03:56:33;;;;;;;5.65;3.20;;;;;;;;;;5126556;27;20380;-70
2021/06/16 03:59:00;;;;;;;10.32;2.85;;;;;;;;;;5110346;28;20495;-70
2021/06/16 04:01:26;;;;;;;6.65;2.70;;;;;;;;;;5110801;28;20024;-70
2021/06/16 04:03:52;;;;;;;5.05;3.03;;;;;;;;;;5110596;28;20031;-70
2021/06/16 04:06:19;;;;;;;7.20;3.60;;;;;;;;;;5108851;28;20396;-70
2021/06/16 04:08:45;;;;;;;6.30;3.47;;;;;;;;;;5110563;28;20019;-70
2021/06/16 04:13:26;;;;;;;5.88;2.97;;;;;;;;;;5126183;27;20376;-70
2021/06/16 04:15:53;;;;;;;6.18;3.05;;;;;;;;;;5110489;28;20092;-70
2021/06/16 04:18:19;;;;;;;5.15;2.95;;;;;;;;;;5110518;28;20547;-70
2021/06/16 04:20:45;;;;;;;8.85;3.47;;;;;;;;;;5110123;28;20020;-70
2021/06/16 04:24:31;;;;;;;4.75;2.25;;;;;;;;;;5126432;27;20384;-70
2021/06/16 04:26:57;;;;;;;4.05;2.50;;;;;;;;;;5108891;28;20393;-70
2021/06/16 04:29:23;;;;;;;5.90;2.60;;;;;;;;;;5110661;28;20043;-70
2021/06/16 04:31:50;;;;;;;4.35;2.33;;;;;;;;;;5110328;28;20073;-70
2021/06/16 04:35:22;;;;;;;3.53;2.10;;;;;;;;;;5126388;27;20384;-70
2021/06/16 04:39:09;;;;;;;6.00;2.63;;;;;;;;;;5126290;27;20392;-70
2021/06/16 04:41:35;;;;;;;5.30;2.63;;;;;;;;;;5110194;28;20031;-70
2021/06/16 04:45:16;;;;;;;7.20;2.53;;;;;;;;;;5129739;27;20463;-70
2021/06/16 04:47:43;;;;;;;4.85;2.53;;;;;;;;;;5130782;28;20401;-70
2021/06/16 04:52:10;;;;;;;4.70;2.30;;;;;;;;;;5133338;27;20118;-70
2021/06/16 04:57:04;;;;;;;6.80;3.00;;;;;;;;;;5126342;27;20380;-70
2021/06/16 04:59:30;;;;;;;9.07;2.97;;;;;;;;;;5110486;28;20102;-70
2021/06/16 05:01:56;;;;;;;7.53;2.97;;;;;;;;;;5110015;28;20015;-69
2021/06/16 05:06:08;;;;;;;5.72;2.83;;;;;;;;;;5123259;27;20381;-69
2021/06/16 05:08:34;;;;;;;10.70;2.72;;;;;;;;;;5110125;28;20504;-69
2021/06/16 05:11:00;;;;;;;6.30;2.80;;;;;;;;;;5110576;28;20741;-70
2021/06/16 05:14:13;;;;;;;4.80;2.42;;;;;;;;;;5126171;27;20373;-70
2021/06/16 05:16:40;;;;;;;7.40;2.80;;;;;;;;;;5109324;28;20102;-70
2021/06/16 05:24:09;;;;;;;5.65;2.83;;;;;;;;;;5125879;27;20378;-69
2021/06/16 05:26:37;;;;;;;5.45;2.47;;;;;;;;;;5110075;28;20028;-70
2021/06/16 05:29:04;;;;;;;3.90;2.10;;;;;;;;;;5110177;28;20361;-69
2021/06/16 05:31:30;;;;;;;5.85;2.75;;;;;;;;;;5110150;28;20016;-70
2021/06/16 05:34:25;;;;;;;8.85;2.50;;;;;;;;;;5126189;27;20140;-69
2021/06/16 05:36:51;;;;;;;6.45;2.53;;;;;;;;;;5109803;28;20047;-69
2021/06/16 05:39:17;;;;;;;6.70;2.95;;;;;;;;;;5109002;28;20024;-69
2021/06/16 05:41:43;;;;;;;4.50;2.13;;;;;;;;;;5108963;28;20028;-69
2021/06/16 05:44:09;;;;;;;4.72;2.13;;;;;;;;;;5108157;28;20032;-69
2021/06/16 05:46:36;;;;;;;5.85;2.20;;;;;;;;;;5103826;28;20066;-69
2021/06/16 05:49:02;;;;;;;3.50;1.67;;;;;;;;;;5105596;28;20051;-68
2021/06/16 05:51:28;;;;;;;8.77;2.08;;;;;;;;;;5108257;28;20024;-69
2021/06/16 05:53:54;;;;;;;6.72;2.25;;;;;;;;;;5108816;28;20036;-70
2021/06/16 05:56:20;;;;;;;3.97;2.40;;;;;;;;;;5106847;28;20024;-69
2021/06/16 05:58:46;;;;;;;4.45;2.60;;;;;;;;;;5105908;28;20034;-68
2021/06/16 06:01:13;;;;;;;6.75;2.70;;;;;;;;;;5109413;28;20108;-68
2021/06/16 06:03:42;;;;;;;8.38;2.75;;;;;;;;;;5109765;28;20031;-68
2021/06/16 06:06:09;;;;;;;5.70;2.40;;;;;;;;;;5108536;28;20031;-68
2021/06/16 06:08:35;;;;;;;4.22;1.92;;;;;;;;;;5104651;28;20427;-70
2021/06/16 06:12:12;;;;;;;4.00;2.08;;;;;;;;;;5123394;27;20476;-69
2021/06/16 06:14:38;;;;;;;4.95;2.03;;;;;;;;;;5107130;28;20460;-69
2021/06/16 06:18:34;;;;;;;5.22;2.33;;;;;;;;;;5125385;27;20380;-68
2021/06/16 06:21:00;;;;;;;5.15;2.05;;;;;;;;;;5109527;28;20038;-69
2021/06/16 06:23:26;;;;;;;3.75;1.77;;;;;;;;;;5109533;28;20093;-69
2021/06/16 06:25:52;;;;;;;8.73;2.03;;;;;;;;;;5109442;28;20022;-69
2021/06/16 06:28:19;;;;;;;5.15;2.38;;;;;;;;;;5109318;28;20039;-69
2021/06/16 06:30:45;;;;;;;4.22;1.50;;;;;;;;;;5109722;28;20081;-69
2021/06/16 06:33:11;;;;;;;5.25;3.05;;;;;;;;;;5108588;28;20024;-69
2021/06/16 06:35:37;;;;;;;7.95;2.42;;;;;;;;;;5109037;28;20604;-69
2021/06/16 06:38:04;;;;;;;5.55;2.38;;;;;;;;;;5109184;28;20032;-69
2021/06/16 06:40:30;;;;;;;5.75;2.22;;;;;;;;;;5109388;28;20039;-69
2021/06/16 06:42:56;;;;;;;3.83;2.35;;;;;;;;;;5108374;28;20035;-69
2021/06/16 06:45:23;;;;;;;4.70;1.88;;;;;;;;;;5108094;28;20435;-70
2021/06/16 06:47:49;;;;;;;4.70;1.95;;;;;;;;;;5109488;28;20084;-70
2021/06/16 06:51:29;;;;;;;9.35;2.75;;;;;;;;;;5119702;27;20477;-69
2021/06/16 06:53:56;;;;;;;7.63;1.90;;;;;;;;;;5103499;28;20035;-70
2021/06/16 06:57:11;;;;;;;31.65;3.15;;;;;;;;;;5122115;27;20372;-69
2021/06/16 06:59:37;;;;;;;4.13;2.33;;;;;;;;;;5109765;28;20027;-69
2021/06/16 07:02:04;;;;;;;4.82;3.13;;;;;;;;;;5108092;28;20039;-69
2021/06/16 07:04:30;;;;;;;6.95;2.13;;;;;;;;;;5109402;28;20019;-69
2021/06/16 07:06:56;;;;;;;4.18;1.98;;;;;;;;;;5109055;28;20020;-69
2021/06/16 07:11:55;;;;;;;4.97;2.58;;;;;;;;;;5122592;27;20381;-69
2021/06/16 07:15:20;;;;;;;7.57;1.98;;;;;;;;;;5121334;27;20377;-68
2021/06/16 07:17:46;;;;;;;7.20;1.85;;;;;;;;;;5105093;28;20028;-69
2021/06/16 07:20:13;;;;;;;3.65;1.83;;;;;;;;;;5106196;28;20074;-68
2021/06/16 07:22:39;;;;;;;4.70;2.08;;;;;;;;;;5108048;28;20024;-70
2021/06/16 07:25:07;;;;;;;4.15;1.75;;;;;;;;;;5109519;28;20484;-69
2021/06/16 07:28:13;;;;;;;3.88;1.73;;;;;;;;;;5125746;27;20384;-69
2021/06/16 07:30:40;;;;;;;2.28;1.55;;;;;;;;;;5108161;28;20056;-69
2021/06/16 07:33:09;;;;;;;5.68;1.90;;;;;;;;;;5109606;28;20386;-70
2021/06/16 07:35:35;;;;;;;7.25;2.00;;;;;;;;;;5109525;28;20027;-70
2021/06/16 07:38:01;;;;;;;4.30;1.92;;;;;;;;;;5107488;28;20048;-68
2021/06/16 07:40:27;;;;;;;4.78;1.80;;;;;;;;;;5109570;28;20024;-69
2021/06/16 07:42:54;;;;;;;7.22;2.10;;;;;;;;;;5108597;28;20036;-69
2021/06/16 07:45:20;;;;;;;4.57;1.95;;;;;;;;;;5109421;28;20073;-69
2021/06/16 07:47:46;;;;;;;4.97;2.13;;;;;;;;;;5107480;28;20032;-69
2021/06/16 07:50:13;;;;;;;6.13;1.83;;;;;;;;;;5107475;28;20024;-69
2021/06/16 07:52:39;;;;;;;4.20;2.05;;;;;;;;;;5109014;28;20136;-69
2021/06/16 07:55:06;;;;;;;3.72;1.92;;;;;;;;;;5109311;28;20019;-70
2021/06/16 07:57:32;;;;;;;4.82;2.30;;;;;;;;;;5108606;28;20426;-69
2021/06/16 07:59:58;;;;;;;3.47;2.10;;;;;;;;;;5107714;28;20662;-70
2021/06/16 08:02:26;;;;;;;4.18;2.10;;;;;;;;;;5109029;28;20028;-69
2021/06/16 08:04:53;;;;;;;7.88;2.10;;;;;;;;;;5107675;28;20023;-70
2021/06/16 08:07:20;;;;;;;7.88;2.10;;;;;;;;;;5107224;28;20024;-69
2021/06/16 08:09:46;;;;;;;4.95;2.08;;;;;;;;;;5105488;28;20043;-70
2021/06/16 08:12:13;;;;;;;7.13;1.83;;;;;;;;;;5102988;28;20116;-69
2021/06/16 08:14:59;;;;;;;4.95;1.65;;;;;;;;;;5123778;27;20373;-69
2021/06/16 08:17:25;;;;;;;5.65;1.98;;;;;;;;;;5104093;28;20032;-69
2021/06/16 08:19:51;;;;;;;3.25;1.75;;;;;;;;;;5106735;28;20446;-69
2021/06/16 08:22:18;;;;;;;6.78;2.28;;;;;;;;;;5107629;28;20048;-69
2021/06/16 08:24:45;;;;;;;4.90;1.80;;;;;;;;;;5109706;28;20376;-69
2021/06/16 08:27:11;;;;;;;3.63;1.70;;;;;;;;;;5104614;28;20016;-69
2021/06/16 08:29:38;;;;;;;3.88;1.70;;;;;;;;;;5106979;28;20127;-70
2021/06/16 08:32:04;;;;;;;5.20;2.50;;;;;;;;;;5107869;28;20024;-70
2021/06/16 08:34:31;;;;;;;4.10;1.83;;;;;;;;;;5108067;28;20042;-70
2021/06/16 08:36:57;;;;;;;5.82;2.00;;;;;;;;;;5108708;28;20023;-71
2021/06/16 08:39:24;;;;;;;6.35;1.65;;;;;;;;;;5109036;28;20387;-70
2021/06/16 08:41:51;;;;;;;2.25;1.63;;;;;;;;;;5107470;28;20119;-72
2021/06/16 08:44:17;;;;;;;7.78;2.20;;;;;;;;;;5108946;28;20028;-70
2021/06/16 08:46:44;;;;;;;5.20;1.77;;;;;;;;;;5109068;28;20023;-70
2021/06/16 08:49:10;;;;;;;5.28;2.25;;;;;;;;;;5107185;28;20035;-71
2021/06/16 08:51:36;;;;;;;4.65;1.90;;;;;;;;;;5107301;28;20479;-69
2021/06/16 08:54:03;;;;;;;4.25;2.08;;;;;;;;;;5108635;28;20062;-70
2021/06/16 08:56:29;;;;;;;4.80;1.95;;;;;;;;;;5107450;28;20422;-71
2021/06/16 08:58:56;;;;;;;4.00;1.75;;;;;;;;;;5108696;28;20027;-70
2021/06/16 09:01:22;;;;;;;8.23;2.30;;;;;;;;;;5105809;28;20020;-70
2021/06/16 09:03:48;;;;;;;6.20;2.03;;;;;;;;;;5106191;28;20016;-70
2021/06/16 09:06:16;;;;;;;3.17;1.58;;;;;;;;;;5108110;28;20052;-70
2021/06/16 09:09:32;;;;;;;10.57;1.85;;;;;;;;;;5124921;27;20384;-69
2021/06/16 09:12:00;;;;;;;3.90;1.63;;;;;;;;;;5109244;28;20484;-69
2021/06/16 09:14:26;;;;;;;4.13;1.80;;;;;;;;;;5107906;28;20016;-69
2021/06/16 09:16:53;;;;;;;4.95;1.95;;;;;;;;;;5106249;28;20054;-70
2021/06/16 09:19:21;;;;;;;4.50;2.00;;;;;;;;;;5107695;28;20089;-70
2021/06/16 09:21:49;;;;;;;6.65;2.17;;;;;;;;;;5109339;28;20024;-70
2021/06/16 09:24:15;;;;;;;3.15;1.83;;;;;;;;;;5109010;28;20020;-70
2021/06/16 09:26:42;;;;;;;3.95;1.92;;;;;;;;;;5107279;28;20078;-70
2021/06/16 09:29:09;;;;;;;5.18;1.77;;;;;;;;;;5108638;28;20043;-71
2021/06/16 09:31:40;;;;;;;6.32;1.92;;;;;;;;;;5107768;28;20034;-70
2021/06/16 09:34:18;;;;;;;3.13;1.95;;;;;;;;;;5109380;28;20036;-70
2021/06/16 09:36:48;;;;;;;4.18;2.10;;;;;;;;;;5107857;28;20020;-71
2021/06/16 09:39:14;;;;;;;6.70;1.83;;;;;;;;;;5109300;28;20024;-70
2021/06/16 09:41:57;;;;;;;3.85;1.90;;;;;;;;;;5107833;28;20031;-70
2021/06/16 09:44:23;;;;;;;;;;;;;;;;;;5107806;28;20107;-71
2021/06/16 09:47:09;;;;;;;5.75;1.95;;;;;;;;;;5109343;28;19995;-70
2021/06/16 09:51:47;;;;;;;3.33;1.65;;;;;;;;;;5125758;27;20373;-70
2021/06/16 09:54:14;;;;;;;4.15;2.13;;;;;;;;;;5108647;28;20056;-71
2021/06/16 09:56:45;;;;;;;3.22;1.60;;;;;;;;;;5107909;28;20503;-70
2021/06/16 09:59:31;;;;;;;3.30;1.80;;;;;;;;;;5109079;28;20093;-70
2021/06/16 10:01:57;;;;;;;2.88;1.70;;;;;;;;;;5105762;28;20024;-70
2021/06/16 10:04:34;;;;;;;6.20;2.67;;;;;;;;;;5102726;28;20066;-70
2021/06/16 10:07:10;;;;;;;6.25;2.30;;;;;;;;;;5108248;28;20028;-71
2021/06/16 10:09:38;;;;;;;3.13;1.73;;;;;;;;;;5102218;28;20024;-72
2021/06/16 10:12:05;;;;;;;5.68;1.63;;;;;;;;;;5106111;28;20035;-69
2021/06/16 10:14:32;;;;;;;3.88;1.92;;;;;;;;;;5106807;28;20043;-69
2021/06/16 10:16:58;;;;;;;4.22;1.98;;;;;;;;;;5109537;28;20045;-70
2021/06/16 10:19:25;;;;;;;7.60;1.65;;;;;;;;;;5108649;28;20035;-70
2021/06/16 10:21:51;;;;;;;5.57;1.50;;;;;;;;;;5109212;28;20055;-70
2021/06/16 10:24:17;;;;;;;4.00;1.80;;;;;;;;;;5102854;28;20020;-70
2021/06/16 10:26:44;;;;;;;4.03;1.48;;;;;;;;;;5106605;28;20024;-71
2021/06/16 10:29:11;;;;;;;10.45;2.83;;;;;;;;;;5107244;28;20125;-70
2021/06/16 10:31:39;;;;;;;3.45;1.75;;;;;;;;;;5106079;28;20084;-70
2021/06/16 10:34:06;;;;;;;3.67;1.70;;;;;;;;;;5107048;28;20024;-70
2021/06/16 10:36:32;;;;;;;3.10;1.52;;;;;;;;;;5105929;28;20122;-69
2021/06/16 10:38:59;;;;;;;3.35;1.70;;;;;;;;;;5108472;28;20020;-69
2021/06/16 10:41:43;;;;;;;2.70;1.58;;;;;;;;;;5108073;28;20016;-70
2021/06/16 10:44:11;;;;;;;4.80;1.63;;;;;;;;;;5107455;28;20035;-70
2021/06/16 10:46:51;;;;;;;3.25;1.67;;;;;;;;;;5107254;28;20020;-70
2021/06/16 10:49:36;;;;;;;3.17;1.40;;;;;;;;;;5109166;28;20451;-69
2021/06/16 10:52:02;;;;;;;3.47;1.90;;;;;;;;;;5105822;28;20032;-70
2021/06/16 10:54:29;;;;;;;3.80;1.70;;;;;;;;;;5106970;28;20032;-68
2021/06/16 10:57:07;;;;;;;2.63;1.60;;;;;;;;;;5106855;28;20024;-69
2021/06/16 10:59:46;;;;;;;4.03;1.80;;;;;;;;;;5106901;28;20136;-69
2021/06/16 11:02:31;;;;;;;6.10;1.80;;;;;;;;;;5097419;28;20046;-68
2021/06/16 11:05:16;;;;;;;3.20;1.42;;;;;;;;;;5094864;28;20099;-68
2021/06/16 11:07:42;;;;;;;4.85;1.60;;;;;;;;;;5094399;28;20560;-68
2021/06/16 11:10:08;;;;;;;4.28;1.80;;;;;;;;;;5094893;28;20078;-69
2021/06/16 11:12:43;;;;;;;3.40;1.73;;;;;;;;;;5094361;28;20024;-69
2021/06/16 11:15:09;;;;;;;4.32;2.00;;;;;;;;;;5091113;28;20024;-69
2021/06/16 11:17:35;;;;;;;2.58;1.83;;;;;;;;;;5094241;28;20059;-68
2021/06/16 11:20:02;;;;;;;2.75;1.55;;;;;;;;;;5094552;28;20031;-68
2021/06/16 11:22:28;;;;;;;3.83;2.08;;;;;;;;;;5093998;28;20034;-69
2021/06/16 11:25:02;;;;;;;4.20;1.70;;;;;;;;;;5093237;28;20024;-69
2021/06/16 11:27:47;;;;;;;3.22;1.42;;;;;;;;;;5095092;28;20380;-69
2021/06/16 11:30:14;;;;;;;4.07;1.38;;;;;;;;;;5093561;28;20034;-70
2021/06/16 11:32:41;;;;;;;3.58;1.65;;;;;;;;;;5093441;28;20034;-71
2021/06/16 11:35:07;;;;;;;3.25;1.70;;;;;;;;;;5094131;28;20047;-70
2021/06/16 11:37:52;;;;;;;2.80;1.30;;;;;;;;;;5094737;28;20093;-70
2021/06/16 11:40:19;;;;;;;3.13;1.83;;;;;;;;;;5094686;28;20016;-70
2021/06/16 11:42:45;;;;;;;2.88;1.33;;;;;;;;;;5093874;28;20408;-70
2021/06/16 11:45:11;;;;;;;2.03;1.38;;;;;;;;;;5092835;28;20016;-68
2021/06/16 11:47:39;;;;;;;3.30;1.90;;;;;;;;;;5093213;28;20028;-68
2021/06/16 11:50:07;;;;;;;2.92;1.63;;;;;;;;;;5093936;28;20051;-68
2021/06/16 11:52:33;;;;;;;2.38;1.40;;;;;;;;;;5094537;28;20023;-71
2021/06/16 11:54:59;;;;;;;2.88;1.40;;;;;;;;;;5093167;28;20039;-70
2021/06/16 11:57:27;;;;;;;1.45;1.20;;;;;;;;;;5093850;28;20499;-67
2021/06/16 11:59:54;;;;;;;2.25;1.50;;;;;;;;;;5094231;28;20024;-72
2021/06/16 12:02:27;;;;;;;3.97;1.85;;;;;;;;;;5094297;28;20111;-72
2021/06/16 12:05:05;;;;;;;2.53;1.45;;;;;;;;;;5093756;28;20020;-72
2021/06/16 12:07:48;;;;;;;3.92;1.30;;;;;;;;;;5091967;28;20651;-72
2021/06/16 12:10:16;;;;;;;3.47;1.55;;;;;;;;;;5092949;28;20358;-72
2021/06/16 12:12:45;;;;;;;6.82;1.88;;;;;;;;;;5093597;28;20023;-69
2021/06/16 12:15:13;;;;;;;3.95;1.70;;;;;;;;;;5088739;28;20091;-72
2021/06/16 12:17:57;;;;;;;2.97;1.90;;;;;;;;;;5092648;28;20020;-71
2021/06/16 12:20:24;;;;;;;6.57;2.28;;;;;;;;;;5093650;28;20062;-69
2021/06/16 12:22:50;;;;;;;3.72;1.63;;;;;;;;;;5093816;28;20031;-71
2021/06/16 12:25:23;;;;;;;2.90;1.58;;;;;;;;;;5093638;28;20032;-72
2021/06/16 12:27:49;;;;;;;3.78;2.00;;;;;;;;;;5094071;28;20024;-70
2021/06/16 12:30:19;;;;;;;3.85;1.70;;;;;;;;;;5093858;28;20032;-71
2021/06/16 12:33:11;;;;;;;4.55;2.15;;;;;;;;;;5093403;28;20017;-71
2021/06/16 12:35:46;;;;;;;3.35;1.70;;;;;;;;;;5092625;28;20042;-71
2021/06/16 12:38:13;;;;;;;3.72;1.25;;;;;;;;;;5092912;28;20012;-71
2021/06/16 12:40:40;;;;;;;3.05;1.80;;;;;;;;;;5092974;28;20056;-70
2021/06/16 12:43:08;;;;;;;3.58;1.60;;;;;;;;;;5093561;28;20023;-71
2021/06/16 12:45:37;;;;;;;2.85;1.65;;;;;;;;;;5093124;28;20024;-71
2021/06/16 12:48:26;;;;;;;3.70;1.75;;;;;;;;;;5093617;28;20027;-70
2021/06/16 12:51:02;;;;;;;4.63;1.80;;;;;;;;;;5092105;28;20404;-71
2021/06/16 12:53:29;;;;;;;2.45;1.40;;;;;;;;;;5093108;28;20028;-71
2021/06/16 12:55:57;;;;;;;4.25;1.73;;;;;;;;;;5093358;28;20024;-71
2021/06/16 12:58:24;;;;;;;3.30;1.63;;;;;;;;;;5093335;28;20464;-72
2021/06/16 13:00:56;;;;;;;3.15;1.50;;;;;;;;;;5092953;28;20412;-71
2021/06/16 13:03:24;;;;;;;2.33;1.50;;;;;;;;;;5093211;28;20069;-71
2021/06/16 13:05:53;;;;;;;2.65;1.50;;;;;;;;;;5093241;28;20051;-71
2021/06/16 13:08:38;;;;;;;2.50;1.17;;;;;;;;;;5092974;28;20499;-71
2021/06/16 13:11:18;;;;;;;2.88;1.27;;;;;;;;;;5092031;28;20040;-70
2021/06/16 13:13:45;;;;;;;2.65;1.40;;;;;;;;;;5092710;28;20047;-71
2021/06/16 13:16:24;;;;;;;3.08;2.20;;;;;;;;;;5093151;28;20023;-70
2021/06/16 13:18:51;;;;;;;2.70;1.50;;;;;;;;;;5092913;28;20089;-70
2021/06/16 13:21:17;;;;;;;4.93;1.80;;;;;;;;;;5092698;28;20018;-70
2021/06/16 13:23:54;;;;;;;3.03;1.35;;;;;;;;;;5091778;28;20032;-70
2021/06/16 13:26:21;;;;;;;4.20;1.70;;;;;;;;;;5092716;28;20049;-70
2021/06/16 13:28:56;;;;;;;8.90;1.95;;;;;;;;;;5092719;28;20027;-71
2021/06/16 13:31:23;;;;;;;4.32;1.92;;;;;;;;;;5091739;28;20066;-71
2021/06/16 13:33:51;;;;;;;3.33;1.50;;;;;;;;;;5092828;28;20032;-70
2021/06/16 13:36:18;;;;;;;6.15;1.77;;;;;;;;;;5092492;28;20101;-70
2021/06/16 13:38:47;;;;;;;4.43;1.63;;;;;;;;;;5092952;28;20103;-70
2021/06/16 13:41:13;;;;;;;3.33;2.00;;;;;;;;;;5092733;28;20020;-70
2021/06/16 13:43:40;;;;;;;2.50;1.60;;;;;;;;;;5092406;28;20472;-70
2021/06/16 13:46:06;;;;;;;5.13;1.95;;;;;;;;;;5092603;28;20020;-70
2021/06/16 13:48:32;;;;;;;6.75;1.50;;;;;;;;;;5090963;28;20023;-71
2021/06/16 13:50:59;;;;;;;4.53;1.42;;;;;;;;;;5091268;28;20139;-71
2021/06/16 13:53:25;;;;;;;1.83;1.35;;;;;;;;;;5092570;28;20031;-71
2021/06/16 13:55:51;;;;;;;2.25;1.60;;;;;;;;;;5092239;28;20020;-71
2021/06/16 13:58:18;;;;;;;2.63;1.40;;;;;;;;;;5092584;28;20021;-71
2021/06/16 14:00:44;;;;;;;3.10;1.60;;;;;;;;;;5092627;28;20031;-71
2021/06/16 14:03:10;;;;;;;5.68;2.00;;;;;;;;;;5090849;28;20023;-70
2021/06/16 14:05:37;;;;;;;3.75;1.45;;;;;;;;;;5092446;28;20500;-71
2021/06/16 14:08:07;;;;;;;2.55;1.63;;;;;;;;;;5092471;28;20487;-70
2021/06/16 14:10:34;;;;;;;1.67;1.48;;;;;;;;;;5092449;28;20081;-70
2021/06/16 14:13:01;;;;;;;3.83;1.63;;;;;;;;;;5091320;28;20101;-70
2021/06/16 14:15:28;;;;;;;4.30;1.83;;;;;;;;;;5091066;28;20494;-71
2021/06/16 14:17:54;;;;;;;2.13;1.60;;;;;;;;;;5092045;28;20104;-70
2021/06/16 14:20:20;;;;;;;2.67;1.52;;;;;;;;;;5091053;28;20543;-71
2021/06/16 14:22:48;;;;;;;2.60;1.45;;;;;;;;;;5092345;28;20074;-71
2021/06/16 14:25:14;;;;;;;2.22;1.38;;;;;;;;;;5091818;28;20031;-70
2021/06/16 14:27:41;;;;;;;5.32;2.03;;;;;;;;;;5092532;28;20033;-70
2021/06/16 14:30:08;;;;;;;2.60;1.60;;;;;;;;;;5090993;28;20027;-70
2021/06/16 14:32:35;;;;;;;3.88;1.65;;;;;;;;;;5090800;28;20024;-71
2021/06/16 14:35:01;;;;;;;3.22;1.67;;;;;;;;;;5091098;28;20093;-70
2021/06/16 14:37:27;;;;;;;2.90;1.83;;;;;;;;;;5092844;28;20024;-69
2021/06/16 14:39:54;;;;;;;3.17;1.73;;;;;;;;;;5094492;28;20372;-71
2021/06/16 14:42:20;;;;;;;3.20;2.00;;;;;;;;;;5096287;28;20048;-70
2021/06/16 14:44:46;;;;;;;5.90;1.88;;;;;;;;;;5095918;28;20422;-70
2021/06/16 14:47:13;;;;;;;4.82;1.88;;;;;;;;;;5095534;28;20036;-70
2021/06/16 14:49:39;;;;;;;5.22;1.77;;;;;;;;;;5095832;28;20036;-71
2021/06/16 14:52:05;;;;;;;5.30;2.03;;;;;;;;;;5095588;28;20028;-70
2021/06/16 14:54:31;;;;;;;5.15;1.90;;;;;;;;;;5095772;28;20031;-71
2021/06/16 14:56:58;;;;;;;3.45;2.08;;;;;;;;;;5094399;28;20118;-69
2021/06/16 14:59:24;;;;;;;3.17;1.98;;;;;;;;;;5094021;28;20020;-70
2021/06/16 15:01:50;;;;;;;2.67;1.80;;;;;;;;;;5095611;28;20384;-70
2021/06/16 15:04:16;;;;;;;3.88;2.00;;;;;;;;;;5095595;28;20028;-70
2021/06/16 15:06:44;;;;;;;4.43;2.15;;;;;;;;;;5095277;28;20073;-71
2021/06/16 15:09:11;;;;;;;5.50;2.33;;;;;;;;;;5094395;28;20027;-70
2021/06/16 15:11:37;;;;;;;5.55;2.63;;;;;;;;;;5095459;28;20388;-72
2021/06/16 15:14:03;;;;;;;4.38;2.28;;;;;;;;;;5093661;28;20116;-70
2021/06/16 15:16:29;;;;;;;7.57;2.33;;;;;;;;;;5095260;28;20074;-70
2021/06/16 15:18:56;;;;;;;2.95;1.80;;;;;;;;;;5094110;28;20020;-70
2021/06/16 15:21:23;;;;;;;2.47;1.60;;;;;;;;;;5094898;28;20051;-70
2021/06/16 15:23:49;;;;;;;4.22;1.90;;;;;;;;;;5095245;28;20023;-70
2021/06/16 15:26:16;;;;;;;5.43;1.95;;;;;;;;;;5095037;28;20028;-71
2021/06/16 15:28:44;;;;;;;4.38;1.80;;;;;;;;;;5093630;28;20025;-71
2021/06/16 15:31:12;;;;;;;3.78;2.28;;;;;;;;;;5093873;28;20036;-70
2021/06/16 15:33:38;;;;;;;3.22;1.83;;;;;;;;;;5095080;28;20020;-71
2021/06/16 15:36:05;;;;;;;6.20;2.13;;;;;;;;;;5094689;28;20027;-71
2021/06/16 15:38:31;;;;;;;5.97;2.30;;;;;;;;;;5094981;28;20027;-72
2021/06/16 15:40:57;;;;;;;4.05;1.90;;;;;;;;;;5093250;28;20032;-72
2021/06/16 15:43:23;;;;;;;4.47;2.33;;;;;;;;;;5094784;28;20095;-71
2021/06/16 15:45:50;;;;;;;4.10;1.90;;;;;;;;;;5093566;28;20046;-71
2021/06/16 15:48:17;;;;;;;2.30;1.60;;;;;;;;;;5093119;28;20051;-71
2021/06/16 15:50:43;;;;;;;5.97;2.33;;;;;;;;;;5093029;28;20059;-72
2021/06/16 15:53:10;;;;;;;3.15;1.50;;;;;;;;;;5094611;28;20016;-72
2021/06/16 15:55:37;;;;;;;3.17;1.83;;;;;;;;;;5094214;28;20032;-71
2021/06/16 15:58:03;;;;;;;4.13;2.05;;;;;;;;;;5094541;28;20020;-71
2021/06/16 16:00:30;;;;;;;4.60;2.00;;;;;;;;;;5094492;28;20032;-71
2021/06/16 16:02:56;;;;;;;5.93;2.05;;;;;;;;;;5094074;28;20021;-71
2021/06/16 16:05:23;;;;;;;5.18;2.42;;;;;;;;;;5093131;28;20050;-71
2021/06/16 16:07:50;;;;;;;4.32;2.15;;;;;;;;;;5093221;28;20038;-71
2021/06/16 16:10:17;;;;;;;3.92;1.75;;;;;;;;;;5092737;28;20058;-72
2021/06/16 16:12:44;;;;;;;5.13;2.17;;;;;;;;;;5092927;28;20062;-71
2021/06/16 16:15:11;;;;;;;4.20;2.25;;;;;;;;;;5094156;28;20055;-71